createdAt,value
2022-12-23T00:01:27.137Z,312.13
2022-12-23T00:04:00.815Z,363.30
2022-12-23T00:06:29.132Z,235.38
2022-12-23T00:08:59.353Z,214.32
2022-12-23T00:11:28.871Z,291.67
2022-12-23T00:14:21.052Z,285.52
2022-12-23T00:16:50.838Z,282.67
2022-12-23T00:19:20.872Z,221.25
2022-12-23T00:21:49.562Z,221.25
2022-12-23T00:24:17.705Z,209.85
2022-12-23T00:26:45.787Z,191.63
2022-12-23T00:29:14.022Z,212.75
2022-12-23T00:31:42.287Z,239.98
2022-12-23T00:34:11.873Z,208.68
2022-12-23T00:36:41.501Z,203.38
2022-12-23T00:39:29.983Z,203.38
2022-12-23T00:42:15.578Z,228.55
2022-12-23T00:44:43.711Z,190.67
2022-12-23T00:47:32.163Z,187.15
2022-12-23T00:49:59.488Z,148.40
2022-12-23T00:52:29.067Z,184.75
2022-12-23T00:54:57.263Z,173.00
2022-12-23T00:57:25.384Z,181.73
2022-12-23T00:59:53.552Z,195.27
2022-12-23T01:02:39.114Z,210.88
2022-12-23T01:08:22.624Z,185.38
2022-12-23T01:10:50.690Z,176.27
2022-12-23T01:13:18.910Z,177.07
2022-12-23T01:15:47.522Z,202.95
2022-12-23T01:18:15.767Z,190.50
2022-12-23T01:20:43.891Z,195.77
2022-12-23T01:23:12.038Z,181.85
2022-12-23T01:25:41.646Z,172.80
2022-12-23T01:28:09.793Z,180.32
2022-12-23T01:30:39.209Z,184.55
2022-12-23T01:33:07.626Z,174.15
2022-12-23T01:35:37.854Z,166.85
2022-12-23T01:38:05.986Z,172.75
2022-12-23T01:40:36.355Z,157.35
2022-12-23T01:43:04.850Z,159.27
2022-12-23T01:45:34.211Z,157.00
2022-12-23T01:48:04.863Z,149.48
2022-12-23T01:50:36.201Z,153.75
2022-12-23T01:53:08.626Z,171.07
2022-12-23T01:55:43.286Z,170.68
2022-12-23T01:58:16.547Z,171.55
2022-12-23T02:01:27.935Z,219.88
2022-12-23T02:04:04.336Z,150.35
2022-12-23T02:06:55.113Z,172.23
2022-12-23T02:09:25.364Z,165.27
2022-12-23T02:12:15.923Z,153.05
2022-12-23T02:15:19.189Z,156.02
2022-12-23T02:17:59.033Z,155.60
2022-12-23T02:20:52.420Z,160.60
2022-12-23T02:23:54.197Z,167.43
2022-12-23T02:26:44.793Z,150.20
2022-12-23T02:29:46.388Z,172.07
2022-12-23T02:32:21.763Z,139.00
2022-12-23T02:34:55.813Z,154.27
2022-12-23T02:37:30.533Z,157.25
2022-12-23T02:40:05.951Z,141.57
2022-12-23T02:42:38.365Z,122.18
2022-12-23T02:45:11.288Z,137.73
2022-12-23T02:47:52.629Z,164.90
2022-12-23T02:50:25.264Z,102.40
2022-12-23T02:52:55.890Z,138.10
2022-12-23T02:55:29.125Z,126.97
2022-12-23T02:58:00.879Z,124.30
2022-12-23T03:00:29.154Z,120.65
2022-12-23T03:02:59.459Z,72.72
2022-12-23T03:05:30.668Z,187.10
2022-12-23T03:08:03.082Z,244.90
2022-12-23T03:10:42.807Z,222.63
2022-12-23T03:13:22.798Z,217.00
2022-12-23T03:15:58.373Z,181.27
2022-12-23T03:18:38.058Z,239.65
2022-12-23T03:21:12.682Z,135.02
2022-12-23T03:23:49.142Z,229.18
2022-12-23T03:26:23.383Z,213.52
2022-12-23T03:29:01.728Z,388.80
2022-12-23T03:31:32.599Z,247.82
2022-12-23T03:34:06.751Z,328.98
2022-12-23T03:36:38.287Z,279.70
2022-12-23T03:39:11.916Z,223.77
2022-12-23T03:41:45.671Z,270.95
2022-12-23T03:44:17.581Z,302.42
2022-12-23T03:46:50.197Z,235.60
2022-12-23T03:49:28.387Z,371.58
2022-12-23T03:52:01.529Z,295.25
2022-12-23T03:54:36.129Z,259.23
2022-12-23T03:57:07.874Z,281.90
2022-12-23T03:59:39.020Z,420.23
2022-12-23T04:02:17.882Z,387.58
2022-12-23T04:05:05.084Z,363.17
2022-12-23T04:07:38.551Z,343.15
2022-12-23T04:10:08.775Z,405.15
2022-12-23T04:12:38.992Z,478.38
2022-12-23T04:15:12.874Z,371.45
2022-12-23T04:17:41.736Z,520.03
2022-12-23T04:20:12.117Z,370.58
2022-12-23T04:22:43.492Z,364.90
2022-12-23T04:25:11.876Z,396.50
2022-12-23T04:27:40.309Z,312.27
2022-12-23T04:30:10.420Z,276.60
2022-12-23T04:32:39.423Z,312.80
2022-12-23T04:35:08.375Z,309.48
2022-12-23T04:37:38.384Z,203.02
2022-12-23T04:40:07.992Z,278.65
2022-12-23T04:42:36.443Z,224.77
2022-12-23T04:45:05.188Z,235.25
2022-12-23T04:47:33.422Z,292.77
2022-12-23T04:50:01.525Z,317.48
2022-12-23T04:52:29.693Z,301.98
2022-12-23T04:54:59.292Z,333.35
2022-12-23T04:57:27.509Z,283.33
2022-12-23T04:59:55.666Z,260.63
2022-12-23T05:02:23.983Z,280.35
2022-12-23T05:04:52.238Z,217.68
2022-12-23T05:07:20.422Z,192.98
2022-12-23T05:09:48.776Z,223.73
2022-12-23T05:12:18.721Z,192.75
2022-12-23T05:14:47.358Z,212.35
2022-12-23T05:17:15.451Z,120.53
2022-12-23T05:19:43.718Z,196.27
2022-12-23T05:22:11.863Z,236.80
2022-12-23T05:24:40.037Z,185.75
2022-12-23T05:27:08.193Z,257.67
2022-12-23T05:29:37.647Z,170.95
2022-12-23T05:32:06.428Z,257.15
2022-12-23T05:34:34.635Z,173.35
2022-12-23T05:37:02.814Z,213.93
2022-12-23T05:39:30.952Z,169.00
2022-12-23T05:41:59.085Z,132.68
2022-12-23T05:44:27.223Z,168.82
2022-12-23T05:46:56.701Z,155.70
2022-12-23T05:49:25.461Z,147.27
2022-12-23T05:51:53.633Z,196.15
2022-12-23T05:54:21.714Z,164.40
2022-12-23T05:56:49.836Z,150.60
2022-12-23T05:59:18.133Z,133.18
2022-12-23T06:01:46.377Z,177.65
2022-12-23T06:04:16.112Z,147.20
2022-12-23T06:06:44.261Z,160.50
2022-12-23T06:09:12.470Z,200.30
2022-12-23T06:11:40.587Z,182.00
2022-12-23T06:14:09.133Z,194.57
2022-12-23T06:16:37.417Z,203.13
2022-12-23T06:19:05.695Z,183.15
2022-12-23T06:21:41.231Z,187.73
2022-12-23T06:24:10.000Z,143.55
2022-12-23T06:26:38.113Z,201.80
2022-12-23T06:29:06.313Z,167.35
2022-12-23T06:31:34.544Z,147.50
2022-12-23T06:34:02.719Z,145.20
2022-12-23T06:36:30.858Z,101.25
2022-12-23T06:39:00.480Z,155.20
2022-12-23T06:41:28.611Z,109.40
2022-12-23T06:43:56.846Z,137.15
2022-12-23T06:46:24.996Z,122.95
2022-12-23T06:48:53.201Z,141.63
2022-12-23T06:51:21.662Z,86.65
2022-12-23T06:53:50.046Z,131.70
2022-12-23T06:56:19.701Z,148.02
2022-12-23T06:58:47.959Z,147.50
2022-12-23T07:01:16.255Z,125.32
2022-12-23T07:03:44.484Z,72.70
2022-12-23T07:06:12.969Z,102.72
2022-12-23T07:08:41.219Z,149.43
2022-12-23T07:11:09.794Z,130.88
2022-12-23T07:13:39.464Z,126.50
2022-12-23T07:16:09.324Z,147.85
2022-12-23T07:18:37.545Z,204.63
2022-12-23T07:21:10.141Z,151.07
2022-12-23T07:23:43.979Z,119.50
2022-12-23T07:26:12.213Z,130.73
2022-12-23T07:28:41.896Z,176.38
2022-12-23T07:31:10.077Z,152.50
2022-12-23T07:33:38.273Z,133.27
2022-12-23T07:36:06.984Z,126.97
2022-12-23T07:38:35.236Z,129.63
2022-12-23T07:41:03.406Z,93.03
2022-12-23T07:43:38.027Z,144.05
2022-12-23T07:46:11.227Z,149.20
2022-12-23T07:48:41.696Z,144.85
2022-12-23T07:51:10.402Z,141.60
2022-12-23T07:53:38.584Z,89.60
2022-12-23T07:56:07.534Z,114.45
2022-12-23T07:58:35.688Z,138.57
2022-12-23T08:01:06.257Z,117.22
2022-12-23T08:03:36.411Z,137.73
2022-12-23T08:06:06.847Z,147.25
2022-12-23T08:08:35.483Z,121.63
2022-12-23T08:11:05.415Z,115.30
2022-12-23T08:13:34.933Z,61.83
2022-12-23T08:16:04.403Z,91.03
2022-12-23T08:18:34.307Z,148.55
2022-12-23T08:21:05.934Z,82.57
2022-12-23T08:23:35.145Z,108.63
2022-12-23T08:26:08.275Z,116.32
2022-12-23T08:28:37.663Z,84.95
2022-12-23T08:31:07.920Z,110.75
2022-12-23T08:33:38.305Z,116.07
2022-12-23T08:36:10.258Z,194.80
2022-12-23T08:38:38.536Z,78.88
2022-12-23T08:41:10.606Z,138.75
2022-12-23T08:43:38.911Z,81.65
2022-12-23T08:46:07.827Z,107.13
2022-12-23T08:48:37.047Z,108.10
2022-12-23T08:51:09.703Z,84.57
2022-12-23T08:53:39.867Z,118.22
2022-12-23T08:56:10.892Z,135.15
2022-12-23T08:58:39.512Z,111.68
2022-12-23T09:01:09.949Z,154.50
2022-12-23T09:03:39.226Z,102.22
2022-12-23T09:06:10.802Z,92.50
2022-12-23T09:08:39.351Z,82.57
2022-12-23T09:11:10.172Z,79.40
2022-12-23T09:13:38.819Z,112.10
2022-12-23T09:16:08.185Z,104.60
2022-12-23T09:18:37.004Z,133.15
2022-12-23T09:21:06.891Z,106.60
2022-12-23T09:23:36.448Z,115.70
2022-12-23T09:26:05.744Z,97.60
2022-12-23T09:28:33.900Z,112.43
2022-12-23T09:31:08.205Z,109.18
2022-12-23T09:33:36.446Z,72.82
2022-12-23T09:36:06.445Z,71.57
2022-12-23T09:38:36.349Z,89.18
2022-12-23T09:41:07.731Z,119.55
2022-12-23T09:43:48.772Z,124.15
2022-12-23T09:46:20.192Z,110.30
2022-12-23T09:49:01.972Z,130.15
2022-12-23T09:51:31.788Z,106.88
2022-12-23T09:54:14.954Z,79.72
2022-12-23T09:56:49.956Z,120.40
2022-12-23T09:59:29.238Z,129.45
2022-12-23T10:02:01.989Z,154.18
2022-12-23T10:04:48.115Z,147.15
2022-12-23T10:07:28.487Z,170.30
2022-12-23T10:09:59.715Z,95.22
2022-12-23T10:12:41.897Z,146.88
2022-12-23T10:15:21.380Z,57.33
2022-12-23T10:17:52.989Z,100.13
2022-12-23T10:20:36.502Z,90.80
2022-12-23T10:23:10.005Z,115.60
2022-12-23T10:25:46.389Z,177.45
2022-12-23T10:28:14.570Z,149.02
2022-12-23T10:33:46.226Z,113.78
2022-12-23T10:36:19.623Z,112.22
2022-12-23T10:38:54.630Z,81.43
2022-12-23T10:41:37.917Z,92.63
2022-12-23T10:44:44.685Z,142.07
2022-12-23T10:47:23.240Z,112.05
2022-12-23T10:50:04.322Z,104.32
2022-12-23T10:52:37.293Z,146.55
2022-12-23T10:55:06.980Z,139.77
2022-12-23T10:57:42.506Z,121.25
2022-12-23T11:00:19.493Z,150.68
2022-12-23T11:02:58.499Z,180.23
2022-12-23T11:05:31.851Z,176.98
2022-12-23T11:08:03.110Z,268.90
2022-12-23T11:10:36.492Z,213.18
2022-12-23T11:13:06.505Z,170.65
2022-12-23T11:15:36.302Z,220.95
2022-12-23T11:18:08.378Z,200.48
2022-12-23T11:20:37.863Z,193.07
2022-12-23T11:23:08.309Z,212.20
2022-12-23T11:25:39.165Z,220.00
2022-12-23T11:28:15.093Z,182.23
2022-12-23T11:33:27.263Z,156.95
2022-12-23T11:36:08.037Z,196.13
2022-12-23T11:38:38.286Z,200.98
2022-12-23T11:41:07.131Z,209.25
2022-12-23T11:43:39.261Z,173.68
2022-12-23T11:46:19.522Z,188.07
2022-12-23T11:48:54.415Z,180.55
2022-12-23T11:51:27.960Z,161.77
2022-12-23T11:54:01.453Z,200.32
2022-12-23T11:56:33.512Z,208.25
2022-12-23T11:59:07.431Z,154.43
2022-12-23T12:01:37.699Z,101.75
2022-12-23T12:04:10.324Z,156.75
2022-12-23T12:06:49.615Z,202.02
2022-12-23T12:09:23.783Z,165.73
2022-12-23T12:11:57.838Z,175.73
2022-12-23T12:14:39.098Z,174.95
2022-12-23T12:17:16.671Z,180.02
2022-12-23T12:20:01.600Z,165.55
2022-12-23T12:22:38.968Z,233.23
2022-12-23T12:25:19.728Z,146.70
2022-12-23T12:27:53.311Z,175.77
2022-12-23T12:30:27.389Z,180.60
2022-12-23T12:33:00.894Z,200.75
2022-12-23T12:35:37.852Z,240.85
2022-12-23T12:38:14.231Z,211.98
2022-12-23T12:40:46.664Z,177.40
2022-12-23T12:43:25.438Z,235.07
2022-12-23T12:46:17.557Z,189.82
2022-12-23T12:48:51.753Z,176.20
2022-12-23T12:51:25.836Z,164.65
2022-12-23T12:54:05.859Z,214.15
2022-12-23T12:56:41.642Z,189.73
2022-12-23T12:59:17.216Z,192.20
2022-12-23T13:02:17.438Z,203.18
2022-12-23T13:05:17.989Z,204.00
2022-12-23T13:07:58.636Z,190.30
2022-12-23T13:10:38.577Z,243.48
2022-12-23T13:13:16.691Z,156.05
2022-12-23T13:15:50.114Z,178.50
2022-12-23T13:18:31.465Z,175.65
2022-12-23T13:21:05.629Z,142.40
2022-12-23T13:23:44.160Z,146.05
2022-12-23T13:26:21.479Z,176.48
2022-12-23T13:28:59.086Z,182.52
2022-12-23T13:31:36.955Z,168.43
2022-12-23T13:34:28.773Z,218.98
2022-12-23T13:37:06.319Z,174.10
2022-12-23T13:39:47.412Z,215.52
2022-12-23T13:42:29.558Z,213.07
2022-12-23T13:44:58.851Z,230.45
2022-12-23T13:47:35.491Z,232.30
2022-12-23T13:50:13.311Z,162.60
2022-12-23T13:52:57.149Z,184.27
2022-12-23T13:55:40.234Z,184.88
2022-12-23T13:58:14.625Z,127.57
2022-12-23T14:00:42.942Z,93.80
2022-12-23T14:03:34.265Z,133.77
2022-12-23T14:06:22.229Z,140.02
2022-12-23T14:08:51.959Z,208.23
2022-12-23T14:11:23.493Z,208.27
2022-12-23T14:13:57.221Z,193.15
2022-12-23T14:16:35.443Z,242.75
2022-12-23T14:19:35.751Z,301.10
2022-12-23T14:22:17.389Z,158.52
2022-12-23T14:25:21.548Z,209.15
2022-12-23T14:27:59.641Z,255.75
2022-12-23T14:30:36.393Z,98.78
2022-12-23T14:33:14.927Z,219.35
2022-12-23T14:36:14.923Z,94.95
2022-12-23T14:39:22.887Z,171.77
2022-12-23T14:41:52.423Z,307.60
2022-12-23T14:44:22.463Z,273.75
2022-12-23T14:46:55.821Z,124.30
2022-12-23T14:49:44.028Z,231.77
2022-12-23T14:52:48.216Z,108.75
2022-12-23T14:55:46.964Z,336.58
2022-12-23T14:58:38.874Z,254.70
2022-12-23T15:01:13.110Z,115.50
2022-12-23T15:03:48.197Z,266.00
2022-12-23T15:06:24.681Z,193.90
2022-12-23T15:08:54.582Z,192.63
2022-12-23T15:11:28.342Z,296.90
2022-12-23T15:13:59.339Z,125.30
2022-12-23T15:16:33.062Z,131.27
2022-12-23T15:19:14.522Z,135.00
2022-12-23T15:21:44.945Z,179.68
2022-12-23T15:24:17.459Z,251.15
2022-12-23T15:27:09.680Z,156.88
2022-12-23T15:29:41.973Z,339.52
2022-12-23T15:32:12.394Z,292.55
2022-12-23T15:34:40.780Z,348.45
2022-12-23T15:37:12.232Z,115.85
2022-12-23T15:39:43.820Z,164.98
2022-12-23T15:42:24.359Z,214.57
2022-12-23T15:44:52.952Z,284.23
2022-12-23T15:47:28.266Z,108.60
2022-12-23T15:49:57.401Z,210.82
2022-12-23T15:52:25.813Z,220.95
2022-12-23T15:54:58.492Z,259.70
2022-12-23T15:57:30.447Z,150.55
2022-12-23T15:59:59.951Z,180.68
2022-12-23T16:02:59.882Z,158.77
2022-12-23T16:05:27.256Z,143.25
2022-12-23T16:08:10.392Z,152.07
2022-12-23T16:10:39.718Z,185.10
2022-12-23T16:13:18.182Z,169.30
2022-12-23T16:15:47.232Z,204.80
2022-12-23T16:18:23.590Z,219.82
2022-12-23T16:20:54.054Z,274.00
2022-12-23T16:23:22.745Z,407.17
2022-12-23T16:25:53.985Z,303.63
2022-12-23T16:28:28.867Z,333.20
2022-12-23T16:30:59.179Z,448.70
2022-12-23T16:33:36.213Z,464.92
2022-12-23T16:36:23.653Z,405.55
2022-12-23T16:39:00.959Z,376.48
2022-12-23T16:41:29.050Z,293.92
2022-12-23T16:43:59.341Z,220.63
2022-12-23T16:46:28.242Z,264.45
2022-12-23T16:48:59.416Z,223.75
2022-12-23T16:51:29.117Z,157.07
2022-12-23T16:53:58.906Z,149.77
2022-12-23T16:56:30.790Z,165.02
2022-12-23T16:59:00.349Z,296.80
2022-12-23T17:01:30.838Z,149.77
2022-12-23T17:03:59.165Z,158.20
2022-12-23T17:06:27.730Z,196.60
2022-12-23T17:08:56.859Z,176.80
2022-12-23T17:11:29.740Z,549.75
2022-12-23T17:14:03.464Z,606.80
2022-12-23T17:19:05.495Z,344.95
2022-12-23T17:21:36.825Z,419.77
2022-12-23T17:24:07.881Z,504.70
2022-12-23T17:26:36.102Z,497.42
2022-12-23T17:29:04.875Z,222.80
2022-12-23T17:31:35.386Z,299.60
2022-12-23T17:34:03.928Z,177.80
2022-12-23T17:36:32.076Z,187.27
2022-12-23T17:39:00.214Z,215.52
2022-12-23T17:41:31.377Z,399.17
2022-12-23T17:43:59.991Z,289.23
2022-12-23T17:46:30.599Z,262.10
2022-12-23T17:49:00.283Z,179.20
2022-12-23T17:51:28.428Z,193.82
2022-12-23T17:53:58.334Z,208.02
2022-12-23T17:56:28.823Z,84.13
2022-12-23T17:58:57.144Z,141.52
2022-12-23T18:01:27.696Z,247.25
2022-12-23T18:03:56.865Z,161.90
2022-12-23T18:06:29.058Z,197.80
2022-12-23T18:08:58.040Z,229.23
2022-12-23T18:11:33.933Z,453.08
2022-12-23T18:14:02.642Z,254.88
2022-12-23T18:16:30.977Z,204.65
2022-12-23T18:18:59.232Z,243.95
2022-12-23T18:21:30.144Z,201.02
2022-12-23T18:24:00.785Z,146.30
2022-12-23T18:26:33.447Z,115.18
2022-12-23T18:29:02.947Z,155.68
2022-12-23T18:31:31.592Z,113.93
2022-12-23T18:34:00.241Z,111.18
2022-12-23T18:36:32.254Z,77.07
2022-12-23T18:39:01.450Z,107.30
2022-12-23T18:41:29.856Z,131.93
2022-12-23T18:43:58.482Z,175.65
2022-12-23T18:46:26.663Z,263.70
2022-12-23T18:48:57.083Z,244.60
2022-12-23T18:51:25.788Z,303.42
2022-12-23T18:53:55.457Z,194.65
2022-12-23T18:56:24.204Z,269.20
2022-12-23T18:58:52.306Z,235.98
2022-12-23T19:01:20.603Z,170.30
2022-12-23T19:03:49.073Z,131.80
2022-12-23T19:06:17.853Z,142.48
2022-12-23T19:08:46.419Z,163.95
2022-12-23T19:11:18.862Z,300.40
2022-12-23T19:13:47.990Z,302.30
2022-12-23T19:16:17.492Z,326.67
2022-12-23T19:18:46.134Z,246.48
2022-12-23T19:21:14.568Z,306.15
2022-12-23T19:23:43.126Z,235.63
2022-12-23T19:26:12.367Z,150.32
2022-12-23T19:28:43.101Z,207.35
2022-12-23T19:31:13.543Z,254.90
2022-12-23T19:33:43.183Z,118.85
2022-12-23T19:36:11.916Z,86.85
2022-12-23T19:38:40.579Z,102.65
2022-12-23T19:41:09.540Z,71.78
2022-12-23T19:43:39.988Z,100.72
2022-12-23T19:46:13.201Z,92.70
2022-12-23T19:48:41.481Z,92.15
2022-12-23T19:51:11.205Z,126.95
2022-12-23T19:53:40.174Z,105.85
2022-12-23T19:56:11.701Z,125.53
2022-12-23T19:58:42.011Z,151.90
2022-12-23T20:01:14.495Z,155.25
2022-12-23T20:03:43.614Z,147.55
2022-12-23T20:06:18.675Z,104.28
2022-12-23T20:08:47.283Z,93.13
2022-12-23T20:11:17.024Z,76.20
2022-12-23T20:13:45.195Z,78.45
2022-12-23T20:16:15.105Z,94.18
2022-12-23T20:18:43.385Z,106.72
2022-12-23T20:21:11.667Z,93.20
2022-12-23T20:23:42.045Z,95.60
2022-12-23T20:26:11.822Z,98.70
2022-12-23T20:28:40.243Z,69.43
2022-12-23T20:31:10.661Z,65.55
2022-12-23T20:33:44.925Z,76.47
2022-12-23T20:36:15.004Z,63.53
2022-12-23T20:38:45.035Z,67.40
2022-12-23T20:41:17.505Z,91.43
2022-12-23T20:44:23.495Z,105.13
2022-12-23T20:46:42.439Z,102.03
2022-12-23T20:49:12.822Z,162.57
2022-12-23T20:51:41.090Z,131.77
2022-12-23T20:54:09.423Z,140.95
2022-12-23T20:56:37.752Z,158.07
2022-12-23T20:59:06.022Z,148.50
2022-12-23T21:01:36.354Z,136.65
2022-12-23T21:04:06.996Z,141.20
2022-12-23T21:06:37.521Z,123.43
2022-12-23T21:09:07.377Z,99.13
2022-12-23T21:11:38.778Z,82.78
2022-12-23T21:14:07.808Z,84.60
2022-12-23T21:16:37.230Z,94.43
2022-12-23T21:19:06.643Z,93.53
2022-12-23T21:21:36.912Z,77.47
2022-12-23T21:24:05.931Z,80.78
2022-12-23T21:26:35.971Z,92.82
2022-12-23T21:29:06.555Z,93.22
2022-12-23T21:31:36.279Z,91.63
2022-12-23T21:34:04.701Z,105.53
2022-12-23T21:36:35.584Z,94.68
2022-12-23T21:39:06.106Z,109.53
2022-12-23T21:41:37.259Z,108.40
2022-12-23T21:44:06.752Z,117.47
2022-12-23T21:46:35.068Z,106.22
2022-12-23T21:49:03.802Z,125.63
2022-12-23T21:51:39.721Z,102.53
2022-12-23T21:54:11.122Z,118.07
2022-12-23T21:56:41.341Z,107.25
2022-12-23T21:59:13.135Z,99.30
2022-12-23T22:01:41.914Z,97.32
2022-12-23T22:04:10.877Z,128.13
2022-12-23T22:06:43.483Z,96.05
2022-12-23T22:09:15.861Z,78.25
2022-12-23T22:11:44.808Z,85.78
2022-12-23T22:14:15.489Z,136.85
2022-12-23T22:16:44.197Z,123.10
2022-12-23T22:19:13.367Z,115.30
2022-12-23T22:21:42.800Z,130.13
2022-12-23T22:24:12.630Z,142.60
2022-12-23T22:26:41.464Z,121.53
2022-12-23T22:29:09.684Z,138.55
2022-12-23T22:31:40.895Z,140.75
2022-12-23T22:34:09.993Z,142.35
2022-12-23T22:36:38.174Z,146.52
2022-12-23T22:39:07.781Z,160.88
2022-12-23T22:41:37.684Z,168.43
2022-12-23T22:44:06.192Z,179.52
2022-12-23T22:46:34.516Z,151.05
2022-12-23T22:49:02.854Z,143.27
2022-12-23T22:51:32.277Z,149.95
2022-12-23T22:54:02.798Z,141.95
2022-12-23T22:56:31.043Z,132.93
2022-12-23T22:59:00.472Z,151.30
2022-12-23T23:01:30.507Z,159.05
2022-12-23T23:04:02.165Z,169.52
2022-12-23T23:06:32.549Z,152.60
2022-12-23T23:09:01.337Z,150.65
2022-12-23T23:11:29.890Z,142.63
2022-12-23T23:13:58.099Z,152.40
2022-12-23T23:16:27.754Z,140.15
2022-12-23T23:18:56.042Z,136.02
2022-12-23T23:21:24.303Z,145.82
2022-12-23T23:23:52.376Z,137.48
2022-12-23T23:26:21.461Z,129.77
2022-12-23T23:28:49.589Z,122.53
2022-12-23T23:31:41.229Z,112.38
2022-12-23T23:34:07.035Z,107.30
2022-12-23T23:36:35.331Z,103.57
2022-12-23T23:39:05.619Z,93.45
2022-12-23T23:41:33.781Z,89.53
2022-12-23T23:44:01.853Z,97.03
2022-12-23T23:46:31.791Z,94.90
2022-12-23T23:49:00.007Z,99.70
2022-12-23T23:51:29.432Z,91.25
2022-12-23T23:53:57.672Z,102.95
2022-12-23T23:56:27.963Z,113.65
2022-12-23T23:58:58.154Z,124.07
